الصفحة الرئيسية
METAR-TAF:

METAR-TAF

مطار :

Tabatinga, الأمازون, البرازيل

دائرة عرض: 03-40S, خط طول: 069-40W, ارتفاع: 85 متر

مراقبة الطقس الحالي

تاريخ ووقت الإصدار 6ساعات و 5 دقيقة قبل الساعة 23:40UTC
ريح 2 عقدة من الشرق/الجنوب الشرقي
درجة الحرارة 26°درجة مئوية
الرطوبة 94%
ضغط 1011 hPa
الرؤية 10 كم أو أكثر
غيوم قليلة على ارتفاع 3000 قدم

METAR: SBTT 242340Z 11002KT 9999 FEW030 26/25 Q1011

زمن: 01:45 (05:45 UTC)

توقعات

تاريخ ووقت الإصدار 1ساعة و 55 دقيقة قبل الساعة 03:50UTC
التوقعات صالحة من25 الساعة 06 UTC إلى 26 الساعة 06 UTC
ريح عقدة من الشمال
الرؤية 10 كم أو أكثر
غيوم قليلة على ارتفاع 1500 قدم
نظرية الاحتمالات 40%
من 25 الساعة 06 UTC إلى 25 الساعة 12 UTC
الرؤية: 4000 متر
غيوم متفرقة على ارتفاع 500 قدم
غشاء
أصبح
من 25 الساعة 15 UTC إلى 25 الساعة 17 UTC
ريح 6 عقدة من الشرق
غيوم متفرقة على ارتفاع 3000 قدم

TAF: SBTT 250350Z 2506/2606 00000KT 9999 FEW015 TN23/2511Z TX29/2521Z PROB40 2506/2512 4000 BR SCT005 BECMG 2515/2517 09006KT SCT030 RMK PGX

أرصاد الطقس والتوقعات من أكثر من 4000 مطار (تقارير الطقس للمطار METAR والتنبؤ بالطقس بالمطارTAF).

المحطات المتاحة هي النقط الصفراء والحمراء على الخريطة.

حرك المؤشر فوق النقطة لمعرفة اسم المحطة.

ثم انقر لمعرفة أرصاد وتوقعات الطقس.

لتغيير الخارطة: اضغط على الأزرار الخضراء مع رمز الصليب الأسود للتكبير. على الزر الأخضر مع شرطة للتصغير، أو على الأسهم الخضراء للخرائط المجاورة.


METAR-TAF: